Time;durP1;ratioP1;P1;durP2;ratioP2;P2;SDS_P1;SDS_P2;PMS_P1;PMS_P2;Temp;Humidity;BMP_temperature;BMP_pressure;BME280_temperature;BME280_humidity;BME280_pressure;Samples;Min_cycle;Max_cycle;Signal;HPM_P1;HPM_P2
2021/03/22 00:02:11;;;;;;;19.98;13.95;;;0.50;95.20;;;;;;5039073;28;20049;-85
2021/03/22 00:04:41;;;;;;;17.67;12.23;;;0.50;95.00;;;;;;5055591;28;20060;-85
2021/03/22 00:07:09;;;;;;;16.13;13.30;;;0.60;95.30;;;;;;5039844;28;20491;-85
2021/03/22 00:09:41;;;;;;;14.75;12.98;;;0.50;95.30;;;;;;5034710;28;20503;-85
2021/03/22 00:12:14;;;;;;;15.85;14.07;;;0.60;95.10;;;;;;5035798;28;20045;-84
2021/03/22 00:14:42;;;;;;;12.80;11.23;;;0.50;95.00;;;;;;5017783;28;20551;-75
2021/03/22 00:17:09;;;;;;;28.10;13.77;;;0.50;95.00;;;;;;5034304;28;20053;-76
2021/03/22 00:19:37;;;;;;;18.17;12.88;;;0.50;95.30;;;;;;5050606;28;20057;-77
2021/03/22 00:22:04;;;;;;;21.58;12.57;;;0.50;95.10;;;;;;5066885;28;20064;-77
2021/03/22 00:24:32;;;;;;;15.35;10.48;;;0.50;95.20;;;;;;5051157;28;20056;-77
2021/03/22 00:26:59;;;;;;;18.92;13.85;;;0.50;95.60;;;;;;5052230;28;20503;-77
2021/03/22 00:29:27;;;;;;;16.13;11.63;;;0.50;95.20;;;;;;5040084;28;20040;-77
2021/03/22 00:31:54;;;;;;;15.13;11.02;;;0.50;95.40;;;;;;5090819;28;20414;-77
2021/03/22 00:34:22;;;;;;;15.40;13.20;;;0.40;95.30;;;;;;5091538;28;20051;-77
2021/03/22 00:36:49;;;;;;;19.42;14.48;;;0.60;95.40;;;;;;5091665;28;20678;-78
2021/03/22 00:39:16;;;;;;;17.90;13.10;;;0.50;95.70;;;;;;5071437;28;20044;-77
2021/03/22 00:41:44;;;;;;;18.65;14.32;;;0.40;95.60;;;;;;5069982;28;20044;-77
2021/03/22 00:44:11;;;;;;;21.60;11.98;;;0.50;95.60;;;;;;5070670;28;20072;-77
2021/03/22 00:46:39;;;;;;;33.50;19.23;;;0.60;95.80;;;;;;5070876;28;20068;-78
2021/03/22 00:49:07;;;;;;;17.80;13.95;;;0.50;95.40;;;;;;5071585;28;20049;-80
2021/03/22 00:51:34;;;;;;;23.23;16.58;;;0.50;95.90;;;;;;5071382;28;20048;-80
2021/03/22 00:54:03;;;;;;;17.13;13.40;;;0.50;95.70;;;;;;5072088;28;20049;-80
2021/03/22 00:56:32;;;;;;;17.80;16.00;;;0.40;95.80;;;;;;5064139;28;20052;-80
2021/03/22 00:59:00;;;;;;;22.10;15.95;;;0.50;95.60;;;;;;5052313;28;20057;-80
2021/03/22 01:01:27;;;;;;;19.73;14.77;;;0.50;95.70;;;;;;5052027;28;20052;-79
2021/03/22 01:03:55;;;;;;;19.17;13.88;;;0.40;96.00;;;;;;5052251;28;20052;-80
2021/03/22 01:06:23;;;;;;;19.25;16.90;;;0.50;96.10;;;;;;5051907;28;20052;-81
2021/03/22 01:08:50;;;;;;;21.70;13.73;;;0.40;96.10;;;;;;5033280;28;20052;-81
2021/03/22 01:11:20;;;;;;;22.30;14.43;;;0.40;96.00;;;;;;5017976;28;20056;-81
2021/03/22 01:13:51;;;;;;;20.80;13.02;;;0.40;95.90;;;;;;5050525;28;20491;-81
2021/03/22 01:16:25;;;;;;;24.80;17.73;;;0.40;95.90;;;;;;5051734;28;20083;-82
2021/03/22 01:18:55;;;;;;;21.83;15.55;;;0.40;95.90;;;;;;5050864;28;20307;-78
2021/03/22 01:21:42;;;;;;;24.42;16.85;;;0.40;95.80;;;;;;5091266;28;20398;-78
2021/03/22 01:24:11;;;;;;;20.77;14.98;;;0.40;96.20;;;;;;5092073;28;20060;-78
2021/03/22 01:26:40;;;;;;;21.00;14.68;;;0.40;96.10;;;;;;5073009;28;20044;-78
2021/03/22 01:29:29;;;;;;;17.13;13.45;;;0.40;96.30;;;;;;5088130;28;20043;-78
2021/03/22 01:31:59;;;;;;;25.13;16.35;;;0.40;96.30;;;;;;5037278;28;20094;-79
2021/03/22 01:34:28;;;;;;;21.15;16.75;;;0.40;96.30;;;;;;5071341;28;20408;-77
2021/03/22 01:36:56;;;;;;;23.20;18.02;;;0.40;96.30;;;;;;5052122;28;20052;-77
2021/03/22 01:39:30;;;;;;;26.98;19.10;;;0.40;96.20;;;;;;5052132;28;20048;-78
2021/03/22 01:42:35;;;;;;;23.00;15.65;;;0.50;96.30;;;;;;5072534;28;20051;-77
2021/03/22 01:45:09;;;;;;;23.63;18.15;;;0.40;96.50;;;;;;5060319;28;20518;-78
2021/03/22 01:47:37;;;;;;;21.90;15.13;;;0.40;96.10;;;;;;5059823;28;20059;-77
2021/03/22 01:50:26;;;;;;;18.48;12.65;;;0.40;96.40;;;;;;5069105;28;20052;-77
2021/03/22 01:52:56;;;;;;;19.90;16.17;;;0.40;96.50;;;;;;5071123;28;20123;-77
2021/03/22 01:55:25;;;;;;;24.38;16.40;;;0.50;96.50;;;;;;5077870;28;20060;-77
2021/03/22 01:57:53;;;;;;;18.20;16.23;;;0.40;96.40;;;;;;5076902;28;20486;-77
2021/03/22 02:00:29;;;;;;;13.15;11.68;;;0.40;96.70;;;;;;5076913;28;20518;-78
2021/03/22 02:03:06;;;;;;;18.85;16.45;;;0.30;96.70;;;;;;5076859;28;20052;-77
2021/03/22 02:05:35;;;;;;;18.00;13.50;;;0.40;96.80;;;;;;5042793;28;20488;-77
2021/03/22 02:08:08;;;;;;;21.92;16.08;;;0.30;96.80;;;;;;5077216;28;20072;-77
2021/03/22 02:10:37;;;;;;;22.75;15.07;;;0.40;96.60;;;;;;5076966;28;20056;-77
2021/03/22 02:13:05;;;;;;;24.98;15.70;;;0.40;96.60;;;;;;5058875;28;20052;-77
2021/03/22 02:15:34;;;;;;;20.77;15.05;;;0.40;96.70;;;;;;5077531;28;20064;-77
2021/03/22 02:18:24;;;;;;;16.55;12.48;;;0.40;96.60;;;;;;5058464;28;20048;-77
2021/03/22 02:21:04;;;;;;;20.90;12.38;;;0.40;96.60;;;;;;5093937;28;20066;-77
2021/03/22 02:23:55;;;;;;;22.65;12.85;;;0.40;96.60;;;;;;5078582;28;20071;-77
2021/03/22 02:26:49;;;;;;;22.10;16.55;;;0.40;96.60;;;;;;5097260;28;20048;-77
2021/03/22 02:29:47;;;;;;;24.55;16.42;;;0.40;96.60;;;;;;5096069;28;20044;-77
2021/03/22 02:32:40;;;;;;;26.85;17.17;;;0.40;96.80;;;;;;5078781;28;20043;-77
2021/03/22 02:35:31;;;;;;;21.48;15.77;;;0.40;96.80;;;;;;5079881;28;20055;-77
2021/03/22 02:38:32;;;;;;;21.42;15.55;;;0.40;96.90;;;;;;5061462;28;20044;-77
2021/03/22 02:41:13;;;;;;;19.75;15.63;;;0.40;96.80;;;;;;5077744;28;20494;-77
2021/03/22 02:43:41;;;;;;;23.50;14.65;;;0.40;96.80;;;;;;5079355;28;20059;-77
2021/03/22 02:46:09;;;;;;;20.20;13.40;;;0.30;96.90;;;;;;5078729;28;20051;-77
2021/03/22 02:48:38;;;;;;;18.17;15.93;;;0.30;96.90;;;;;;5096917;28;20059;-77
2021/03/22 02:51:36;;;;;;;19.42;13.70;;;0.40;96.70;;;;;;5096896;28;20056;-77
2021/03/22 02:54:16;;;;;;;18.20;12.73;;;0.50;96.90;;;;;;5073639;28;20036;-77
2021/03/22 02:56:52;;;;;;;24.55;17.58;;;0.40;96.80;;;;;;5046368;28;20075;-77
2021/03/22 02:59:27;;;;;;;22.70;12.13;;;0.30;96.70;;;;;;5053792;28;20053;-77
2021/03/22 03:02:03;;;;;;;24.58;15.43;;;0.40;96.70;;;;;;5053095;28;20037;-77
2021/03/22 03:04:36;;;;;;;23.10;15.00;;;0.40;96.70;;;;;;5053037;28;20057;-77
2021/03/22 03:07:10;;;;;;;19.48;14.88;;;0.50;96.70;;;;;;5035738;28;20071;-77
2021/03/22 03:09:40;;;;;;;21.83;12.52;;;0.40;96.50;;;;;;5018431;28;20048;-77
2021/03/22 03:12:25;;;;;;;19.15;12.75;;;0.50;96.60;;;;;;5003298;28;20056;-77
2021/03/22 03:14:55;;;;;;;25.50;13.85;;;0.40;96.50;;;;;;5034871;28;20701;-77
2021/03/22 03:17:28;;;;;;;19.00;12.55;;;0.50;96.40;;;;;;5053101;28;20064;-77
2021/03/22 03:19:57;;;;;;;26.02;14.50;;;0.50;96.60;;;;;;5072300;28;20051;-77
2021/03/22 03:22:24;;;;;;;22.40;14.38;;;0.40;96.50;;;;;;5074978;28;20399;-77
2021/03/22 03:24:52;;;;;;;20.08;11.68;;;0.40;96.50;;;;;;5074718;28;20045;-77
2021/03/22 03:27:19;;;;;;;19.60;14.52;;;0.40;96.90;;;;;;5093124;28;20052;-77
2021/03/22 03:29:47;;;;;;;30.55;14.43;;;0.40;96.90;;;;;;5057307;28;20552;-77
2021/03/22 03:32:20;;;;;;;17.50;12.65;;;0.40;96.90;;;;;;5051851;28;20072;-77
2021/03/22 03:34:48;;;;;;;25.35;14.73;;;0.50;97.00;;;;;;5051450;28;20060;-77
2021/03/22 03:37:16;;;;;;;17.05;12.30;;;0.50;97.10;;;;;;5053205;28;20064;-77
2021/03/22 03:39:43;;;;;;;13.82;11.73;;;0.40;97.00;;;;;;5052920;28;20049;-77
2021/03/22 03:42:12;;;;;;;19.58;12.57;;;0.40;96.90;;;;;;5051556;28;20037;-77
2021/03/22 03:44:40;;;;;;;21.48;13.52;;;0.40;97.00;;;;;;5035082;28;20045;-78
2021/03/22 03:47:09;;;;;;;26.70;12.63;;;0.40;96.90;;;;;;5053136;28;20504;-77
2021/03/22 03:49:36;;;;;;;26.25;13.82;;;0.40;96.90;;;;;;5065847;28;20044;-77
2021/03/22 03:52:06;;;;;;;30.25;15.80;;;0.40;96.90;;;;;;5058746;28;20066;-77
2021/03/22 03:54:33;;;;;;;17.33;11.55;;;0.50;96.80;;;;;;5055445;28;20040;-86
2021/03/22 03:57:04;;;;;;;21.27;13.95;;;0.50;97.00;;;;;;5073298;28;20044;-84
2021/03/22 03:59:42;;;;;;;28.10;13.73;;;0.50;96.50;;;;;;5024632;28;20383;-85
2021/03/22 04:02:15;;;;;;;18.08;12.18;;;0.50;96.60;;;;;;5023657;28;20044;-86
2021/03/22 04:04:58;;;;;;;19.45;10.80;;;0.50;96.80;;;;;;5039703;28;20068;-85
2021/03/22 04:07:32;;;;;;;21.00;11.00;;;0.50;96.50;;;;;;5024475;28;20060;-85
2021/03/22 04:09:59;;;;;;;24.95;12.02;;;0.50;96.50;;;;;;5038842;28;20048;-86
2021/03/22 04:12:27;;;;;;;24.85;12.52;;;0.50;96.50;;;;;;5038913;28;20052;-86
2021/03/22 04:14:57;;;;;;;22.75;10.10;;;0.50;96.50;;;;;;5056155;28;20067;-85
2021/03/22 04:17:27;;;;;;;20.40;13.30;;;0.50;96.60;;;;;;5039084;28;20056;-84
2021/03/22 04:19:55;;;;;;;21.98;13.80;;;0.50;96.70;;;;;;5039557;28;20059;-83
2021/03/22 04:22:23;;;;;;;25.30;11.52;;;0.50;96.80;;;;;;5054330;28;20037;-86
2021/03/22 04:24:50;;;;;;;25.70;14.15;;;0.50;96.90;;;;;;5038657;28;20049;-86
2021/03/22 04:27:20;;;;;;;32.78;14.10;;;0.40;96.80;;;;;;5073013;28;20057;-85
2021/03/22 04:29:48;;;;;;;27.75;13.40;;;0.50;96.80;;;;;;5054705;28;20044;-86
2021/03/22 04:32:16;;;;;;;25.63;13.23;;;0.50;96.80;;;;;;5038764;28;20044;-84
2021/03/22 04:34:45;;;;;;;33.78;15.05;;;0.50;96.70;;;;;;5055042;28;20052;-85
2021/03/22 04:37:12;;;;;;;19.17;11.02;;;0.50;96.70;;;;;;5038848;28;20051;-85
2021/03/22 04:39:41;;;;;;;20.48;11.25;;;0.50;96.70;;;;;;5072662;28;20052;-85
2021/03/22 04:42:09;;;;;;;17.67;11.07;;;0.60;96.60;;;;;;5072378;28;20402;-86
2021/03/22 04:44:36;;;;;;;25.17;10.85;;;0.50;96.70;;;;;;5038117;28;20049;-84
2021/03/22 04:47:04;;;;;;;31.95;11.20;;;0.50;96.70;;;;;;5055188;28;20044;-84
2021/03/22 04:49:33;;;;;;;19.98;11.55;;;0.40;96.80;;;;;;5043689;28;20047;-84
2021/03/22 04:52:04;;;;;;;21.27;12.07;;;0.60;96.80;;;;;;5059408;28;20048;-85
2021/03/22 04:54:36;;;;;;;25.95;14.23;;;0.50;96.50;;;;;;5009681;28;20666;-85
2021/03/22 04:57:34;;;;;;;24.70;10.63;;;0.60;96.40;;;;;;4981727;28;20064;-86
2021/03/22 05:00:30;;;;;;;14.02;10.32;;;0.50;96.40;;;;;;5000283;28;20052;-84
2021/03/22 05:02:58;;;;;;;25.98;11.07;;;0.50;96.30;;;;;;4981349;28;20088;-85
2021/03/22 05:05:35;;;;;;;18.85;11.65;;;0.60;96.50;;;;;;4981816;28;20041;-86
2021/03/22 05:08:09;;;;;;;20.33;14.23;;;0.50;96.50;;;;;;4997053;28;20056;-81
2021/03/22 05:10:40;;;;;;;31.25;13.10;;;0.50;96.40;;;;;;4997639;28;20586;-81
2021/03/22 05:13:10;;;;;;;24.95;14.60;;;0.40;96.40;;;;;;5014100;28;20053;-81
2021/03/22 05:15:38;;;;;;;20.20;11.18;;;0.50;96.50;;;;;;5014556;28;20057;-81
2021/03/22 05:18:07;;;;;;;23.13;10.73;;;0.50;96.40;;;;;;5029884;28;20412;-81
2021/03/22 05:20:38;;;;;;;23.13;9.63;;;0.50;96.70;;;;;;5052631;28;20047;-81
2021/03/22 05:23:10;;;;;;;22.58;9.77;;;0.60;96.50;;;;;;5074712;28;20056;-80
2021/03/22 05:25:37;;;;;;;29.90;9.43;;;0.50;96.50;;;;;;5057839;28;20048;-80
2021/03/22 05:28:06;;;;;;;26.48;11.43;;;0.60;96.40;;;;;;5093202;28;20055;-80
2021/03/22 05:30:35;;;;;;;19.40;10.85;;;0.60;96.40;;;;;;5058608;28;20475;-81
2021/03/22 05:33:06;;;;;;;29.23;12.70;;;0.60;96.40;;;;;;5053998;28;20040;-80
2021/03/22 05:35:34;;;;;;;;;;;0.60;96.40;;;;;;5073043;28;20503;-80
2021/03/22 05:38:03;;;;;;;22.80;9.30;;;0.60;96.40;;;;;;5054040;28;20382;-81
2021/03/22 05:40:46;;;;;;;20.75;9.48;;;0.60;96.30;;;;;;5071283;28;20071;-79
2021/03/22 05:43:38;;;;;;;20.75;10.35;;;0.60;96.20;;;;;;5054276;28;20123;-82
2021/03/22 05:46:33;;;;;;;17.75;10.35;;;0.60;96.40;;;;;;5053829;28;20045;-81
2021/03/22 05:49:19;;;;;;;26.67;12.60;;;0.60;96.40;;;;;;5055823;28;20048;-81
2021/03/22 05:52:11;;;;;;;26.73;9.30;;;0.60;96.40;;;;;;5057792;28;20056;-81
2021/03/22 05:54:59;;;;;;;24.20;9.50;;;0.60;96.30;;;;;;5092341;28;20051;-81
2021/03/22 05:57:36;;;;;;;26.13;9.35;;;0.60;96.40;;;;;;5073645;28;20047;-82
2021/03/22 06:00:15;;;;;;;21.38;9.88;;;0.60;96.30;;;;;;5074311;28;20485;-78
2021/03/22 06:03:01;;;;;;;22.38;7.93;;;0.60;96.60;;;;;;5055331;28;20486;-81
2021/03/22 06:05:29;;;;;;;21.90;8.68;;;0.60;96.50;;;;;;5070947;28;20044;-81
2021/03/22 06:08:01;;;;;;;18.67;12.77;;;0.60;96.20;;;;;;5069736;28;20062;-86
2021/03/22 06:10:39;;;;;;;21.92;8.82;;;0.70;96.40;;;;;;5037440;28;20040;-85
2021/03/22 06:13:07;;;;;;;30.67;10.25;;;0.70;96.10;;;;;;5053884;28;20040;-85
2021/03/22 06:15:40;;;;;;;21.75;9.10;;;0.70;96.10;;;;;;5039435;28;20055;-84
2021/03/22 06:18:22;;;;;;;26.40;11.48;;;0.80;96.20;;;;;;5049352;28;20091;-83
2021/03/22 06:20:56;;;;;;;14.90;8.63;;;0.80;96.10;;;;;;5028506;28;20116;-83
2021/03/22 06:23:37;;;;;;;26.83;8.27;;;1.00;95.90;;;;;;5013938;28;20054;-83
2021/03/22 06:26:23;;;;;;;31.27;11.90;;;0.90;95.90;;;;;;4996308;28;20412;-84
2021/03/22 06:28:56;;;;;;;20.77;9.07;;;0.90;95.80;;;;;;5047539;28;20052;-83
2021/03/22 06:31:24;;;;;;;19.17;8.20;;;1.00;95.90;;;;;;5014502;28;20072;-83
2021/03/22 06:34:02;;;;;;;20.15;7.28;;;1.00;95.90;;;;;;5031022;28;20056;-83
2021/03/22 06:36:30;;;;;;;16.38;9.25;;;1.10;96.00;;;;;;5030619;28;20476;-83
2021/03/22 06:38:59;;;;;;;24.10;12.48;;;1.00;95.90;;;;;;5028627;28;20053;-82
2021/03/22 06:41:32;;;;;;;26.25;8.23;;;0.90;96.40;;;;;;5029247;28;20176;-81
2021/03/22 06:44:04;;;;;;;27.00;10.05;;;0.90;96.30;;;;;;5030102;28;20049;-83
2021/03/22 06:46:32;;;;;;;23.75;7.72;;;0.90;96.60;;;;;;5031425;28;20048;-83
2021/03/22 06:49:06;;;;;;;11.43;7.13;;;0.90;96.80;;;;;;5034715;28;20052;-83
2021/03/22 06:51:34;;;;;;;17.83;9.40;;;0.90;96.70;;;;;;5057999;28;20049;-84
2021/03/22 06:54:01;;;;;;;20.40;10.93;;;0.80;96.80;;;;;;5031845;28;20052;-83
2021/03/22 06:56:36;;;;;;;19.05;7.78;;;0.90;96.80;;;;;;5050067;28;20041;-83
2021/03/22 06:59:12;;;;;;;13.95;7.13;;;0.90;96.70;;;;;;5052119;28;20049;-82
2021/03/22 07:01:42;;;;;;;22.92;8.50;;;1.10;96.50;;;;;;5048689;28;20045;-82
2021/03/22 07:04:28;;;;;;;20.25;9.27;;;1.00;96.20;;;;;;5033162;28;20049;-83
2021/03/22 07:07:20;;;;;;;19.45;10.18;;;1.00;96.50;;;;;;5048724;28;20045;-82
2021/03/22 07:09:53;;;;;;;37.35;12.65;;;1.10;96.40;;;;;;5047873;28;20495;-83
2021/03/22 07:12:34;;;;;;;35.05;10.35;;;1.00;95.90;;;;;;5049365;28;20057;-83
2021/03/22 07:15:27;;;;;;;17.58;9.32;;;1.10;96.00;;;;;;5034127;28;20067;-82
2021/03/22 07:18:20;;;;;;;30.77;6.72;;;1.20;95.60;;;;;;5049312;28;20404;-83
2021/03/22 07:20:54;;;;;;;25.52;7.95;;;1.30;95.50;;;;;;5030330;28;20037;-83
2021/03/22 07:23:52;;;;;;;13.32;7.00;;;1.40;95.20;;;;;;5052270;28;20313;-83
2021/03/22 07:26:20;;;;;;;18.13;6.53;;;1.40;94.70;;;;;;5053016;28;20057;-82
2021/03/22 07:29:02;;;;;;;27.83;9.13;;;1.40;94.60;;;;;;5051037;28;20057;-83
2021/03/22 07:31:54;;;;;;;12.98;6.38;;;1.50;94.30;;;;;;4997176;28;20407;-82
2021/03/22 07:34:26;;;;;;;22.27;7.35;;;1.60;93.70;;;;;;5012906;28;20049;-81
2021/03/22 07:37:17;;;;;;;22.23;7.13;;;1.70;93.20;;;;;;5013077;28;20053;-82
2021/03/22 07:40:21;;;;;;;17.30;6.93;;;1.70;93.70;;;;;;5011172;28;20056;-83
2021/03/22 07:43:08;;;;;;;25.17;6.68;;;1.60;93.00;;;;;;5025991;28;20117;-83
2021/03/22 07:46:14;;;;;;;20.02;7.22;;;1.80;93.10;;;;;;4996868;28;20500;-83
2021/03/22 07:49:20;;;;;;;21.63;7.25;;;1.90;92.30;;;;;;5007987;28;20038;-82
2021/03/22 07:51:56;;;;;;;29.58;9.07;;;1.90;92.40;;;;;;5050878;28;20072;-83
2021/03/22 07:54:38;;;;;;;21.55;8.57;;;1.80;92.20;;;;;;5018312;28;20037;-82
2021/03/22 07:57:30;;;;;;;23.00;9.02;;;1.90;92.10;;;;;;5024345;28;20037;-82
2021/03/22 08:00:07;;;;;;;28.75;8.30;;;2.20;91.80;;;;;;5044395;28;20049;-82
2021/03/22 08:02:44;;;;;;;31.38;7.70;;;2.30;91.40;;;;;;5039622;28;20041;-83
2021/03/22 08:05:30;;;;;;;25.20;6.70;;;2.50;90.80;;;;;;5029780;28;20033;-82
2021/03/22 08:08:03;;;;;;;21.83;7.32;;;2.50;90.10;;;;;;5025104;28;20478;-83
2021/03/22 08:10:40;;;;;;;13.23;4.63;;;2.70;89.10;;;;;;5014481;28;20528;-84
2021/03/22 08:13:30;;;;;;;12.50;4.57;;;2.60;87.50;;;;;;5047058;28;20051;-83
2021/03/22 08:16:33;;;;;;;31.90;7.05;;;2.70;87.00;;;;;;5046926;28;20063;-82
2021/03/22 08:19:22;;;;;;;22.65;7.72;;;2.90;85.60;;;;;;5021221;28;20455;-83
2021/03/22 08:22:04;;;;;;;28.55;8.20;;;2.60;88.20;;;;;;5006963;28;20041;-84
2021/03/22 08:24:32;;;;;;;21.25;7.00;;;2.70;86.90;;;;;;5028316;28;20369;-84
2021/03/22 08:27:10;;;;;;;18.50;5.93;;;2.40;90.10;;;;;;5045025;28;20064;-83
2021/03/22 08:29:49;;;;;;;20.48;8.68;;;2.40;90.50;;;;;;5046792;28;20045;-84
2021/03/22 08:32:22;;;;;;;17.23;5.75;;;2.30;92.00;;;;;;5027126;28;20511;-83
2021/03/22 08:35:08;;;;;;;14.77;5.80;;;2.30;90.60;;;;;;5020074;28;20060;-84
2021/03/22 08:37:44;;;;;;;24.25;8.70;;;2.30;90.90;;;;;;5038291;28;20041;-83
2021/03/22 08:40:22;;;;;;;18.80;7.13;;;2.30;89.60;;;;;;5035095;28;20059;-83
2021/03/22 08:43:03;;;;;;;22.45;9.05;;;2.40;91.00;;;;;;5033934;28;20506;-84
2021/03/22 08:45:43;;;;;;;26.65;8.48;;;2.10;89.80;;;;;;5068413;28;20033;-83
2021/03/22 08:48:25;;;;;;;32.30;7.95;;;2.20;90.50;;;;;;5031879;28;20056;-85
2021/03/22 08:50:56;;;;;;;17.00;8.00;;;2.20;89.70;;;;;;5000230;28;20045;-84
2021/03/22 08:53:32;;;;;;;24.45;8.57;;;2.10;88.40;;;;;;5001698;28;20601;-84
2021/03/22 08:56:04;;;;;;;30.58;6.03;;;2.00;89.00;;;;;;5048155;28;20061;-84
2021/03/22 08:58:38;;;;;;;18.52;7.63;;;2.10;90.20;;;;;;5030195;28;20045;-83
2021/03/22 09:01:08;;;;;;;21.13;7.25;;;2.30;88.20;;;;;;5014384;28;20064;-83
2021/03/22 09:04:21;;;;;;;24.13;7.38;;;2.50;87.20;;;;;;5046783;28;20063;-83
2021/03/22 09:07:11;;;;;;;16.73;6.15;;;2.40;88.20;;;;;;5032644;28;20077;-82
2021/03/22 09:09:46;;;;;;;19.20;6.63;;;3.30;86.30;;;;;;5048547;28;20041;-83
2021/03/22 09:12:42;;;;;;;20.85;7.25;;;3.30;83.10;;;;;;5028366;28;20044;-82
2021/03/22 09:15:31;;;;;;;24.52;7.47;;;3.20;88.80;;;;;;5028158;28;20056;-83
2021/03/22 09:18:03;;;;;;;15.18;5.95;;;3.20;88.60;;;;;;5043206;28;20054;-83
2021/03/22 09:20:45;;;;;;;21.40;7.30;;;3.30;86.50;;;;;;5004121;28;20522;-84
2021/03/22 09:23:45;;;;;;;24.58;7.95;;;3.00;89.50;;;;;;5026561;28;20049;-83
2021/03/22 09:26:13;;;;;;;16.42;8.82;;;3.10;85.60;;;;;;5012102;28;20052;-83
2021/03/22 09:28:48;;;;;;;28.13;8.05;;;3.40;82.70;;;;;;5046868;28;20041;-84
2021/03/22 09:31:15;;;;;;;15.35;6.72;;;3.60;82.90;;;;;;4998806;28;20049;-83
2021/03/22 09:34:01;;;;;;;23.13;7.95;;;3.70;82.60;;;;;;5028282;28;20048;-84
2021/03/22 09:36:29;;;;;;;16.77;5.95;;;3.40;87.90;;;;;;5029475;28;20299;-81
2021/03/22 09:39:00;;;;;;;15.45;7.20;;;3.80;81.20;;;;;;5014963;28;20050;-84
2021/03/22 09:41:52;;;;;;;21.13;5.63;;;3.20;80.60;;;;;;5012308;28;20056;-82
2021/03/22 09:44:22;;;;;;;29.20;6.72;;;3.10;82.30;;;;;;5009212;28;20384;-83
2021/03/22 09:47:14;;;;;;;19.75;7.15;;;3.00;85.70;;;;;;5004568;28;20064;-84
2021/03/22 09:50:00;;;;;;;17.60;7.50;;;3.10;85.40;;;;;;5022402;28;20045;-84
2021/03/22 09:52:56;;;;;;;16.83;6.25;;;3.20;83.10;;;;;;5008739;28;20053;-84
2021/03/22 09:55:27;;;;;;;18.83;6.43;;;3.20;84.60;;;;;;5043588;28;20049;-84
2021/03/22 09:58:35;;;;;;;19.83;8.95;;;3.10;83.20;;;;;;5009384;28;20042;-85
2021/03/22 10:01:31;;;;;;;22.45;8.32;;;3.10;83.90;;;;;;5009717;28;20045;-84
2021/03/22 10:04:18;;;;;;;20.50;8.27;;;3.20;82.60;;;;;;5012882;28;20310;-84
2021/03/22 10:07:04;;;;;;;11.73;4.43;;;3.30;85.40;;;;;;5036675;28;20053;-84
2021/03/22 10:10:00;;;;;;;13.40;5.72;;;3.40;80.90;;;;;;5019994;28;20041;-84
2021/03/22 10:12:33;;;;;;;12.80;4.97;;;3.50;83.20;;;;;;5025048;28;20055;-84
2021/03/22 10:15:17;;;;;;;13.82;6.50;;;3.60;79.70;;;;;;5050093;28;20387;-84
2021/03/22 10:18:06;;;;;;;16.70;6.28;;;3.60;82.50;;;;;;5051461;28;20104;-84
2021/03/22 10:20:42;;;;;;;16.55;7.63;;;4.10;83.00;;;;;;5045644;28;20057;-84
2021/03/22 10:23:35;;;;;;;19.13;7.03;;;4.40;83.20;;;;;;5021705;28;20051;-84
2021/03/22 10:26:29;;;;;;;18.40;6.72;;;4.20;78.80;;;;;;5023278;28;20488;-84
2021/03/22 10:29:24;;;;;;;13.15;6.95;;;4.00;76.40;;;;;;5037657;28;20399;-84
2021/03/22 10:32:07;;;;;;;19.02;5.57;;;4.00;78.30;;;;;;5030729;28;20509;-84
2021/03/22 10:34:51;;;;;;;27.05;6.80;;;4.10;76.70;;;;;;5021640;28;20500;-83
2021/03/22 10:37:29;;;;;;;21.13;8.05;;;3.80;75.50;;;;;;5033548;28;20056;-83
2021/03/22 10:40:20;;;;;;;18.83;6.45;;;3.50;75.80;;;;;;5049944;28;20395;-83
2021/03/22 10:42:49;;;;;;;13.48;5.43;;;3.20;77.00;;;;;;5023246;28;20041;-83
2021/03/22 10:45:23;;;;;;;24.90;6.78;;;3.10;81.40;;;;;;5030154;28;20438;-83
2021/03/22 10:47:52;;;;;;;15.10;6.60;;;2.80;86.10;;;;;;5051763;28;20052;-83
2021/03/22 10:50:29;;;;;;;15.98;6.45;;;2.60;86.90;;;;;;5031490;28;20045;-83
2021/03/22 10:53:11;;;;;;;14.20;7.38;;;2.40;88.10;;;;;;5048906;28;20049;-83
2021/03/22 10:55:41;;;;;;;18.73;7.22;;;2.40;90.10;;;;;;5025265;28;20050;-89
2021/03/22 10:58:22;;;;;;;22.63;7.22;;;2.40;90.10;;;;;;5016975;28;20061;-83
2021/03/22 11:01:08;;;;;;;28.77;9.07;;;2.50;90.70;;;;;;5050235;28;20045;-83
2021/03/22 11:03:37;;;;;;;19.15;6.82;;;2.50;90.00;;;;;;5036873;28;20060;-83
2021/03/22 11:06:15;;;;;;;14.85;6.50;;;2.40;91.10;;;;;;5025384;28;20394;-84
2021/03/22 11:08:52;;;;;;;20.08;8.30;;;2.40;90.10;;;;;;5074263;28;20048;-83
2021/03/22 11:11:22;;;;;;;20.17;6.30;;;2.40;88.80;;;;;;5073355;28;20048;-83
2021/03/22 11:13:53;;;;;;;20.20;7.75;;;2.50;90.10;;;;;;5071854;28;20051;-83
2021/03/22 11:16:48;;;;;;;25.15;7.72;;;2.50;88.90;;;;;;5053746;28;20044;-83
2021/03/22 11:19:54;;;;;;;14.90;7.03;;;2.60;89.70;;;;;;5035062;28;20056;-84
2021/03/22 11:22:23;;;;;;;17.73;6.03;;;2.80;88.20;;;;;;5027140;28;20050;-83
2021/03/22 11:24:54;;;;;;;24.67;8.68;;;2.90;90.60;;;;;;5032257;28;20415;-84
2021/03/22 11:27:52;;;;;;;19.00;7.28;;;3.00;85.60;;;;;;5045963;28;20065;-84
2021/03/22 11:30:39;;;;;;;12.25;7.13;;;2.70;88.10;;;;;;5030773;28;20041;-83
2021/03/22 11:33:25;;;;;;;17.30;6.25;;;2.40;91.20;;;;;;5048174;28;20092;-84
2021/03/22 11:36:16;;;;;;;14.93;7.03;;;2.20;91.40;;;;;;5035457;28;20057;-84
2021/03/22 11:38:56;;;;;;;17.13;6.82;;;2.00;90.60;;;;;;5032093;28;20049;-83
2021/03/22 11:41:29;;;;;;;20.05;6.80;;;1.90;90.70;;;;;;5037016;28;20041;-83
2021/03/22 11:44:25;;;;;;;13.25;6.00;;;2.10;91.40;;;;;;5044200;28;20052;-83
2021/03/22 11:47:21;;;;;;;18.70;6.30;;;2.20;90.90;;;;;;5018451;28;20060;-88
2021/03/22 11:49:51;;;;;;;18.50;8.23;;;2.20;91.60;;;;;;5054025;28;20718;-85
2021/03/22 11:52:29;;;;;;;11.23;5.88;;;2.00;90.50;;;;;;5050302;28;20057;-81
2021/03/22 11:55:08;;;;;;;18.90;6.38;;;2.00;91.40;;;;;;5057096;28;20065;-81
2021/03/22 11:57:39;;;;;;;17.85;7.05;;;2.10;90.30;;;;;;5060129;28;20040;-82
2021/03/22 12:00:26;;;;;;;18.88;8.48;;;2.10;90.80;;;;;;5060208;28;20053;-81
2021/03/22 12:03:15;;;;;;;16.98;6.68;;;2.20;92.20;;;;;;5033108;28;20052;-81
2021/03/22 12:05:43;;;;;;;36.20;9.05;;;2.30;91.40;;;;;;5011993;28;20045;-82
2021/03/22 12:08:33;;;;;;;20.58;8.75;;;2.40;91.20;;;;;;5051459;28;20060;-82
2021/03/22 12:11:06;;;;;;;18.07;8.37;;;2.40;90.00;;;;;;4998976;28;20064;-84
2021/03/22 12:13:34;;;;;;;19.38;7.57;;;2.50;91.60;;;;;;5029827;28;20042;-83
2021/03/22 12:16:08;;;;;;;;;;;2.50;90.40;;;;;;5049416;28;20053;-81
2021/03/22 12:18:40;;;;;;;18.15;10.13;;;2.60;91.30;;;;;;5039001;28;19924;-83
2021/03/22 12:21:12;;;;;;;20.77;6.90;;;2.70;90.00;;;;;;5050866;28;20052;-81
2021/03/22 12:23:40;;;;;;;15.80;7.83;;;2.80;89.80;;;;;;5052029;28;20499;-82
2021/03/22 12:26:13;;;;;;;23.25;7.88;;;2.90;90.10;;;;;;5051878;28;20045;-82
2021/03/22 12:29:03;;;;;;;9.52;5.65;;;3.00;91.20;;;;;;5052365;28;20048;-81
2021/03/22 12:31:35;;;;;;;20.73;10.48;;;3.10;89.00;;;;;;5052118;28;20393;-83
2021/03/22 12:34:09;;;;;;;18.02;8.25;;;3.00;89.30;;;;;;5050364;28;20052;-82
2021/03/22 12:36:38;;;;;;;17.85;7.15;;;2.90;87.20;;;;;;5033132;28;20048;-82
2021/03/22 12:39:21;;;;;;;26.08;10.63;;;3.00;86.30;;;;;;5052609;28;20048;-82
2021/03/22 12:41:53;;;;;;;22.00;8.00;;;2.90;85.70;;;;;;5050667;28;20075;-84
2021/03/22 12:44:20;;;;;;;24.13;6.97;;;3.00;86.40;;;;;;5036846;28;20512;-83
2021/03/22 12:46:48;;;;;;;25.15;8.35;;;3.10;84.00;;;;;;5034720;28;20045;-82
2021/03/22 12:49:19;;;;;;;23.95;10.88;;;3.20;84.10;;;;;;5034661;28;20072;-84
2021/03/22 12:51:48;;;;;;;15.25;5.57;;;3.30;83.30;;;;;;5034353;28;20058;-83
2021/03/22 12:54:15;;;;;;;10.10;6.95;;;3.50;86.20;;;;;;5032675;28;20052;-82
2021/03/22 12:56:43;;;;;;;18.80;5.82;;;3.70;83.50;;;;;;5042737;28;20068;-84
2021/03/22 12:59:31;;;;;;;15.45;8.35;;;3.70;81.80;;;;;;5043304;28;20064;-84
2021/03/22 13:02:01;;;;;;;36.88;8.55;;;3.90;75.60;;;;;;5050876;28;20049;-89
2021/03/22 13:05:06;;;;;;;21.55;7.85;;;3.80;78.80;;;;;;5051611;28;20674;-86
2021/03/22 13:07:33;;;;;;;17.17;8.73;;;3.80;81.20;;;;;;5053064;28;20049;-85
2021/03/22 13:10:00;;;;;;;19.95;5.93;;;3.60;76.60;;;;;;5052719;28;20056;-86
2021/03/22 13:12:29;;;;;;;9.70;5.20;;;3.80;74.70;;;;;;5051527;28;20514;-85
2021/03/22 13:14:57;;;;;;;19.58;5.57;;;3.80;75.70;;;;;;5052935;28;20408;-84
2021/03/22 13:17:30;;;;;;;14.38;6.75;;;4.10;76.80;;;;;;5071351;28;20407;-84
2021/03/22 13:19:59;;;;;;;16.73;6.32;;;3.80;74.40;;;;;;5092925;28;20060;-84
2021/03/22 13:22:29;;;;;;;17.42;5.95;;;3.90;77.40;;;;;;5091416;28;20048;-85
2021/03/22 13:25:01;;;;;;;9.95;5.20;;;4.00;71.60;;;;;;5037037;28;20491;-83
2021/03/22 13:27:29;;;;;;;15.75;5.45;;;4.10;72.60;;;;;;5071434;28;20052;-84
2021/03/22 13:29:56;;;;;;;14.82;8.60;;;4.40;75.40;;;;;;5070760;28;20040;-84
2021/03/22 13:32:24;;;;;;;20.67;5.70;;;4.20;71.90;;;;;;5053721;28;20045;-85